Time;durP1;ratioP1;P1;durP2;ratioP2;P2;SDS_P1;SDS_P2;PMS_P1;PMS_P2;Temp;Humidity;BMP_temperature;BMP_pressure;BME280_temperature;BME280_humidity;BME280_pressure;Samples;Min_cycle;Max_cycle;Signal;HPM_P1;HPM_P2
2022/07/10 00:00:14;;;;;;;;;;;20.30;57.00;;;;;;5166882;27;20241;-50
2022/07/10 00:02:40;;;;;;;;;;;20.00;57.00;;;;;;5142897;27;19937;-48
2022/07/10 00:05:06;;;;;;;;;;;20.00;57.00;;;;;;5159892;27;19923;-46
2022/07/10 00:07:32;;;;;;;;;;;20.00;56.90;;;;;;5166006;27;20285;-45
2022/07/10 00:09:58;;;;;;;;;;;20.10;56.70;;;;;;5160904;27;19929;-46
2022/07/10 00:12:24;;;;;;;;;;;20.10;56.70;;;;;;5163067;27;19923;-45
2022/07/10 00:14:50;;;;;;;;;;;19.90;57.30;;;;;;5170281;27;20005;-45
2022/07/10 00:17:16;;;;;;;;;;;20.00;56.80;;;;;;5164981;27;19942;-45
2022/07/10 00:19:41;;;;;;;;;;;20.50;61.70;;;;;;5151783;27;20398;-48
2022/07/10 00:22:07;;;;;;;;;;;21.10;64.60;;;;;;5164104;27;19930;-47
2022/07/10 00:24:33;;;;;;;;;;;21.50;65.90;;;;;;5163177;27;20385;-49
2022/07/10 00:26:59;;;;;;;;;;;20.80;61.90;;;;;;5169846;27;19923;-50
2022/07/10 00:29:25;;;;;;;;;;;20.30;60.20;;;;;;5128686;27;19975;-47
2022/07/10 00:31:50;;;;;;;;;;;20.50;58.10;;;;;;5164661;27;20463;-45
2022/07/10 00:34:16;;;;;;;;;;;20.30;57.50;;;;;;5170047;27;20282;-46
2022/07/10 00:36:43;;;;;;;;;;;20.30;56.60;;;;;;5164647;27;19922;-45
2022/07/10 00:39:09;;;;;;;;;;;20.20;56.60;;;;;;5167658;27;19926;-53
2022/07/10 00:41:34;;;;;;;;;;;20.20;56.30;;;;;;5165531;27;19971;-46
2022/07/10 00:44:01;;;;;;;;;;;20.10;56.20;;;;;;5163275;27;20339;-46
2022/07/10 00:46:27;;;;;;;;;;;20.00;56.60;;;;;;5169688;27;19972;-46
2022/07/10 00:48:53;;;;;;;;;;;19.90;56.70;;;;;;5164272;27;19923;-46
2022/07/10 00:51:20;;;;;;;;;;;20.10;57.90;;;;;;5164413;27;19971;-46
2022/07/10 00:53:46;;;;;;;;;;;20.70;63.10;;;;;;5169981;27;19943;-44
2022/07/10 00:56:12;;;;;;;;;;;21.30;64.80;;;;;;5164057;27;19933;-49
2022/07/10 00:58:39;;;;;;;;;;;21.20;62.70;;;;;;5163794;27;19926;-52
2022/07/10 01:01:05;;;;;;;;;;;20.40;60.40;;;;;;5167899;27;19937;-45
2022/07/10 01:03:30;;;;;;;;;;;20.20;58.60;;;;;;5145110;27;19931;-46
2022/07/10 01:05:57;;;;;;;;;;;20.10;58.00;;;;;;5169590;27;19923;-47
2022/07/10 01:08:22;;;;;;;;;;;20.00;57.30;;;;;;5164063;27;19936;-45
2022/07/10 01:10:48;;;;;;;;;;;20.10;56.30;;;;;;5164126;27;19927;-44
2022/07/10 01:13:14;;;;;;;;;;;20.10;55.70;;;;;;5169582;27;20033;-44
2022/07/10 01:15:40;;;;;;;;;;;20.00;55.80;;;;;;5163880;27;19945;-44
2022/07/10 01:18:06;;;;;;;;;;;20.00;55.70;;;;;;5162557;27;20021;-45
2022/07/10 01:20:32;;;;;;;;;;;20.30;56.30;;;;;;5168472;27;20009;-45
2022/07/10 01:22:58;;;;;;;;;;;20.80;62.00;;;;;;5163431;27;19922;-46
2022/07/10 01:25:24;;;;;;;;;;;21.30;63.50;;;;;;5169223;27;19972;-46
2022/07/10 01:27:50;;;;;;;;;;;21.10;61.90;;;;;;5163684;27;20029;-46
2022/07/10 01:30:17;;;;;;;;;;;20.30;59.90;;;;;;5163908;27;19922;-45
2022/07/10 01:32:43;;;;;;;;;;;20.10;58.30;;;;;;5169172;27;19933;-45
2022/07/10 01:35:09;;;;;;;;;;;20.30;56.30;;;;;;5163707;27;19923;-45
2022/07/10 01:37:35;;;;;;;;;;;20.20;56.00;;;;;;5161750;27;19930;-45
2022/07/10 01:40:01;;;;;;;;;;;20.00;55.80;;;;;;5168651;27;19929;-45
2022/07/10 01:42:26;;;;;;;;;;;19.90;55.70;;;;;;5163217;27;19940;-44
2022/07/10 01:44:53;;;;;;;;;;;19.90;55.60;;;;;;5168592;27;20026;-52
2022/07/10 01:47:19;;;;;;;;;;;20.00;55.50;;;;;;5164501;27;20391;-44
2022/07/10 01:49:45;;;;;;;;;;;20.10;55.70;;;;;;5163952;27;19923;-45
2022/07/10 01:52:11;;;;;;;;;;;20.60;61.50;;;;;;5168785;27;19926;-46
2022/07/10 01:54:37;;;;;;;;;;;21.30;62.70;;;;;;5163046;27;20301;-49
2022/07/10 01:57:03;;;;;;;;;;;21.50;62.00;;;;;;5162313;27;19966;-45
2022/07/10 01:59:29;;;;;;;;;;;20.40;59.60;;;;;;5149681;27;19927;-46
2022/07/10 02:01:55;;;;;;;;;;;20.10;58.00;;;;;;5144130;27;19933;-44
2022/07/10 02:07:05;;;;;;;;;;;19.90;56.40;;;;;;5168788;27;20293;-43
2022/07/10 02:09:31;;;;;;;;;;;19.90;55.60;;;;;;5144481;27;20391;-46
2022/07/10 02:11:57;;;;;;;;;;;20.00;54.80;;;;;;5168311;27;19923;-47
2022/07/10 02:14:22;;;;;;;;;;;19.90;54.90;;;;;;5161302;27;21412;-44
2022/07/10 02:16:48;;;;;;;;;;;20.10;54.60;;;;;;5143823;27;19930;-46
2022/07/10 02:19:14;;;;;;;;;;;20.20;57.20;;;;;;5168243;27;19930;-45
2022/07/10 02:21:40;;;;;;;;;;;20.80;61.70;;;;;;5162815;27;19943;-45
2022/07/10 02:24:05;;;;;;;;;;;21.30;63.00;;;;;;5162758;27;20808;-45
2022/07/10 02:26:31;;;;;;;;;;;21.10;61.00;;;;;;5168590;27;20285;-44
2022/07/10 02:28:57;;;;;;;;;;;20.30;59.10;;;;;;5162800;27;19976;-44
2022/07/10 02:31:23;;;;;;;;;;;20.20;57.50;;;;;;5165141;27;20438;-52
2022/07/10 02:33:48;;;;;;;;;;;20.00;56.60;;;;;;5163595;27;19930;-43
2022/07/10 02:36:14;;;;;;;;;;;20.10;55.30;;;;;;5161818;27;19971;-44
2022/07/10 02:38:40;;;;;;;;;;;20.00;54.90;;;;;;5168020;27;19930;-45
2022/07/10 02:41:06;;;;;;;;;;;20.00;54.80;;;;;;5162786;27;20500;-43
2022/07/10 02:43:32;;;;;;;;;;;19.90;54.90;;;;;;5162564;27;19966;-45
2022/07/10 02:45:57;;;;;;;;;;;20.40;61.20;;;;;;5168048;27;19922;-43
2022/07/10 02:48:23;;;;;;;;;;;21.10;63.20;;;;;;5162323;27;19926;-45
2022/07/10 02:50:49;;;;;;;;;;;21.50;63.90;;;;;;5161880;27;20009;-51
2022/07/10 02:53:15;;;;;;;;;;;20.70;60.50;;;;;;5165964;27;19968;-45
2022/07/10 02:55:41;;;;;;;;;;;20.10;59.00;;;;;;5143305;27;19950;-45
2022/07/10 02:58:09;;;;;;;;;;;20.00;57.60;;;;;;5167666;27;20324;-42
2022/07/10 03:00:35;;;;;;;;;;;19.90;56.50;;;;;;5162213;27;19927;-46
2022/07/10 03:03:01;;;;;;;;;;;19.90;55.50;;;;;;5162211;27;20033;-45
2022/07/10 03:05:27;;;;;;;;;;;20.00;55.10;;;;;;5167246;27;19945;-42
2022/07/10 03:07:53;;;;;;;;;;;20.00;55.50;;;;;;5161008;27;19972;-45
2022/07/10 03:10:19;;;;;;;;;;;20.70;61.30;;;;;;5142289;27;19930;-44
2022/07/10 03:12:45;;;;;;;;;;;21.20;63.60;;;;;;5167275;27;20184;-47
2022/07/10 03:15:10;;;;;;;;;;;21.40;62.20;;;;;;5161927;27;19922;-44
2022/07/10 03:17:36;;;;;;;;;;;20.50;59.90;;;;;;5167537;27;19930;-44
2022/07/10 03:20:02;;;;;;;;;;;20.10;58.20;;;;;;5161979;27;20133;-45
2022/07/10 03:22:28;;;;;;;;;;;20.00;57.40;;;;;;5161867;27;19923;-48
2022/07/10 03:24:54;;;;;;;;;;;20.00;56.10;;;;;;5167431;27;20002;-43
2022/07/10 03:27:20;;;;;;;;;;;19.90;55.80;;;;;;5155913;27;19923;-45
2022/07/10 03:29:46;;;;;;;;;;;20.10;55.20;;;;;;5161294;27;19926;-45
2022/07/10 03:32:12;;;;;;;;;;;19.90;55.00;;;;;;5167043;27;19974;-43
2022/07/10 03:34:37;;;;;;;;;;;19.90;55.00;;;;;;5141165;27;19978;-43
2022/07/10 03:37:03;;;;;;;;;;;20.20;58.30;;;;;;5167143;27;20362;-43
2022/07/10 03:39:29;;;;;;;;;;;20.80;62.70;;;;;;5162077;27;19926;-44
2022/07/10 03:41:55;;;;;;;;;;;21.30;63.60;;;;;;5161546;27;19923;-47
2022/07/10 03:44:21;;;;;;;;;;;21.20;62.00;;;;;;5166481;27;19922;-47
2022/07/10 03:46:46;;;;;;;;;;;20.50;58.90;;;;;;5161133;27;20037;-44
2022/07/10 03:49:12;;;;;;;;;;;20.20;57.00;;;;;;5164928;27;19974;-44
2022/07/10 03:51:38;;;;;;;;;;;19.80;56.50;;;;;;5170698;27;19930;-43
2022/07/10 03:54:04;;;;;;;;;;;19.80;55.60;;;;;;5165044;27;19929;-43
2022/07/10 03:59:14;;;;;;;;;;;20.00;57.70;;;;;;5170550;27;19982;-51
2022/07/10 04:01:40;;;;;;;;;;;20.70;63.10;;;;;;5165253;27;19966;-47
2022/07/10 04:04:06;;;;;;;;;;;21.30;63.60;;;;;;5168601;27;20060;-47
2022/07/10 04:06:31;;;;;;;;;;;21.40;61.50;;;;;;5164461;27;19927;-49
2022/07/10 04:08:57;;;;;;;;;;;20.60;58.70;;;;;;5164944;27;19930;-48
2022/07/10 04:11:23;;;;;;;;;;;20.20;56.60;;;;;;5170219;27;19930;-45
2022/07/10 04:13:49;;;;;;;;;;;20.00;55.20;;;;;;5146212;27;20011;-45
2022/07/10 04:16:14;;;;;;;;;;;19.90;54.30;;;;;;5165276;27;20429;-45
2022/07/10 04:18:40;;;;;;;;;;;20.00;55.60;;;;;;5170298;27;19923;-48
2022/07/10 04:21:06;;;;;;;;;;;20.50;61.30;;;;;;5164235;27;19980;-47
2022/07/10 04:23:32;;;;;;;;;;;21.20;62.30;;;;;;5168789;27;19922;-46
2022/07/10 04:25:58;;;;;;;;;;;21.60;61.20;;;;;;5164659;27;19926;-56
2022/07/10 04:28:24;;;;;;;;;;;21.60;62.30;;;;;;5164693;27;19976;-54
2022/07/10 04:30:49;;;;;;;;;;;21.70;61.60;;;;;;5151428;27;19934;-58
2022/07/10 04:33:15;;;;;;;;;;;21.80;60.90;;;;;;5164668;27;19923;-55
2022/07/10 04:35:41;;;;;;;;;;;21.90;59.90;;;;;;5164758;27;19923;-56
2022/07/10 04:38:07;;;;;;;;;;;21.90;60.00;;;;;;5170219;27;19930;-58
2022/07/10 04:40:32;;;;;;;;;;;22.00;59.10;;;;;;5162862;27;19923;-57
2022/07/10 04:42:58;;;;;;;;;;;21.90;58.90;;;;;;5167916;27;20165;-58
2022/07/10 04:45:24;;;;;;;;;;;22.00;58.70;;;;;;5165858;27;19945;-56
2022/07/10 04:47:50;;;;;;;;;;;22.00;58.40;;;;;;5164146;27;20044;-57
2022/07/10 04:50:15;;;;;;;;;;;22.00;58.30;;;;;;5169706;27;20453;-58
2022/07/10 04:52:41;;;;;;;;;;;22.30;57.90;;;;;;5164290;27;20370;-57
2022/07/10 04:55:07;;;;;;;;;;;22.40;57.20;;;;;;5144749;27;19923;-58
2022/07/10 04:57:33;;;;;;;;;;;22.40;57.20;;;;;;5168823;27;19923;-56
2022/07/10 04:59:59;;;;;;;;;;;22.60;56.60;;;;;;5162665;27;19934;-52
2022/07/10 05:02:25;;;;;;;;;;;21.90;56.90;;;;;;5165555;27;19923;-58
2022/07/10 05:04:51;;;;;;;;;;;21.50;56.20;;;;;;5167964;27;19934;-56
2022/07/10 05:07:16;;;;;;;;;;;21.70;57.00;;;;;;5164114;27;20381;-56
2022/07/10 05:09:42;;;;;;;;;;;21.70;57.80;;;;;;5169384;27;19954;-55
2022/07/10 05:12:08;;;;;;;;;;;21.70;58.00;;;;;;5164162;27;19926;-58
2022/07/10 05:14:34;;;;;;;;;;;21.80;57.30;;;;;;5163907;27;20002;-56
2022/07/10 05:17:00;;;;;;;;;;;21.80;57.20;;;;;;5167914;27;19927;-58
2022/07/10 05:19:25;;;;;;;;;;;21.80;56.90;;;;;;5163128;27;20331;-58
2022/07/10 05:21:51;;;;;;;;;;;21.70;56.80;;;;;;5163599;27;19927;-56
2022/07/10 05:24:17;;;;;;;;;;;21.80;56.50;;;;;;5169525;27;19922;-58
2022/07/10 05:26:43;;;;;;;;;;;21.80;56.20;;;;;;5164046;27;20378;-59
2022/07/10 05:29:08;;;;;;;;;;;21.80;56.00;;;;;;5169571;27;19934;-59
2022/07/10 05:31:34;;;;;;;;;;;21.80;55.80;;;;;;5163850;27;19922;-57
2022/07/10 05:34:00;;;;;;;;;;;21.80;55.60;;;;;;5163671;27;20388;-58
2022/07/10 05:36:26;;;;;;;;;;;21.70;55.50;;;;;;5167446;27;19927;-58
2022/07/10 05:38:52;;;;;;;;;;;21.80;55.10;;;;;;5163422;27;20378;-60
2022/07/10 05:41:18;;;;;;;;;;;21.70;55.20;;;;;;5142922;27;19930;-58
2022/07/10 05:43:43;;;;;;;;;;;21.80;54.80;;;;;;5169016;27;19926;-59
2022/07/10 05:46:09;;;;;;;;;;;21.80;54.60;;;;;;5163650;27;19929;-58
2022/07/10 05:48:35;;;;;;;;;;;21.80;54.40;;;;;;5169386;27;19923;-60
2022/07/10 05:51:01;;;;;;;;;;;21.80;54.40;;;;;;5163265;27;19926;-58
2022/07/10 05:53:27;;;;;;;;;;;21.80;54.30;;;;;;5143731;27;19922;-57
2022/07/10 05:55:53;;;;;;;;;;;21.90;53.90;;;;;;5167734;27;19927;-59
2022/07/10 05:58:18;;;;;;;;;;;21.80;53.70;;;;;;5163137;27;19927;-59
2022/07/10 06:00:45;;;;;;;;;;;21.80;53.50;;;;;;5163448;27;20309;-59
2022/07/10 06:03:11;;;;;;;;;;;21.80;53.00;;;;;;5168589;27;19934;-59
2022/07/10 06:05:37;;;;;;;;;;;21.80;52.90;;;;;;5163454;27;20009;-59
2022/07/10 06:08:03;;;;;;;;;;;21.80;52.60;;;;;;5168711;27;19922;-60
2022/07/10 06:10:29;;;;;;;;;;;21.80;52.50;;;;;;5162191;27;20005;-60
2022/07/10 06:12:55;;;;;;;;;;;21.80;52.50;;;;;;5161453;27;20279;-59
2022/07/10 06:15:21;;;;;;;;;;;21.80;52.30;;;;;;5163886;27;19938;-60
2022/07/10 06:17:47;;;;;;;;;;;21.80;52.40;;;;;;5162817;27;19995;-59
2022/07/10 06:20:12;;;;;;;;;;;21.80;52.30;;;;;;5162973;27;20188;-58
2022/07/10 06:22:39;;;;;;;;;;;21.80;52.00;;;;;;5168236;27;20017;-58
2022/07/10 06:25:06;;;;;;;;;;;21.80;51.90;;;;;;5163272;27;19923;-60
2022/07/10 06:27:32;;;;;;;;;;;21.80;51.90;;;;;;5165984;27;20004;-56
2022/07/10 06:29:58;;;;;;;;;;;21.90;51.80;;;;;;5164647;27;19975;-57
2022/07/10 06:32:24;;;;;;;;;;;21.80;52.00;;;;;;5161977;27;19926;-58
2022/07/10 06:34:50;;;;;;;;;;;21.80;51.70;;;;;;5167897;27;19923;-60
2022/07/10 06:37:16;;;;;;;;;;;21.60;51.00;;;;;;5162794;27;20025;-58
2022/07/10 06:39:42;;;;;;;;;;;21.20;49.50;;;;;;5163079;27;20437;-59
2022/07/10 06:42:07;;;;;;;;;;;21.00;48.60;;;;;;5168198;27;19927;-59
2022/07/10 06:44:34;;;;;;;;;;;21.20;50.20;;;;;;5162759;27;20062;-60
2022/07/10 06:49:45;;;;;;;;;;;21.90;53.90;;;;;;5165992;27;19923;-58
2022/07/10 06:52:11;;;;;;;;;;;22.00;53.20;;;;;;5143239;27;19923;-58
2022/07/10 06:54:36;;;;;;;;;;;22.10;52.20;;;;;;5146456;27;19930;-58
2022/07/10 06:57:02;;;;;;;;;;;22.10;51.40;;;;;;5164835;27;19977;-58
2022/07/10 06:59:28;;;;;;;;;;;22.20;51.00;;;;;;5162213;27;19975;-58
2022/07/10 07:01:54;;;;;;;;;;;22.30;50.50;;;;;;5167870;27;19922;-56
2022/07/10 07:04:20;;;;;;;;;;;22.20;50.40;;;;;;5162277;27;19930;-58
2022/07/10 07:06:45;;;;;;;;;;;22.30;49.90;;;;;;5161311;27;19972;-57
2022/07/10 07:09:11;;;;;;;;;;;22.00;49.50;;;;;;5166705;27;19937;-56
2022/07/10 07:11:37;;;;;;;;;;;21.30;50.30;;;;;;5161944;27;19990;-56
2022/07/10 07:14:03;;;;;;;;;;;21.30;51.00;;;;;;5163334;27;19922;-56
2022/07/10 07:16:39;;;;;;;;;;;21.40;51.80;;;;;;5166478;27;19935;-57
2022/07/10 07:19:05;;;;;;;;;;;21.70;51.00;;;;;;5162185;27;19926;-55
2022/07/10 07:24:18;;;;;;;;;;;21.70;50.20;;;;;;5163860;27;19923;-57
2022/07/10 07:26:44;;;;;;;;;;;21.70;50.10;;;;;;5160194;27;20122;-58
2022/07/10 07:29:10;;;;;;;;;;;21.70;50.10;;;;;;5166907;27;20009;-58
2022/07/10 07:31:36;;;;;;;;;;;21.80;50.10;;;;;;5161686;27;19923;-59
2022/07/10 07:34:02;;;;;;;;;;;21.70;50.20;;;;;;5162074;27;20352;-59
2022/07/10 07:36:28;;;;;;;;;;;21.70;49.80;;;;;;5167261;27;19936;-59
2022/07/10 07:38:53;;;;;;;;;;;21.60;49.80;;;;;;5142564;27;19937;-58
2022/07/10 07:41:19;;;;;;;;;;;21.70;49.50;;;;;;5161741;27;20227;-59
2022/07/10 07:43:45;;;;;;;;;;;21.80;49.30;;;;;;5165823;27;19933;-57
2022/07/10 07:46:11;;;;;;;;;;;21.70;49.30;;;;;;5160784;27;20013;-58
2022/07/10 07:48:37;;;;;;;;;;;21.70;49.10;;;;;;5166819;27;19930;-58
2022/07/10 07:51:02;;;;;;;;;;;21.70;49.00;;;;;;5161528;27;20294;-58
2022/07/10 07:53:28;;;;;;;;;;;21.70;48.80;;;;;;5161629;27;19987;-58
2022/07/10 07:55:54;;;;;;;;;;;21.70;48.70;;;;;;5166947;27;19923;-59
2022/07/10 07:58:20;;;;;;;;;;;21.70;48.50;;;;;;5161529;27;19922;-58
2022/07/10 08:00:46;;;;;;;;;;;21.70;48.50;;;;;;5161350;27;20320;-56
2022/07/10 08:03:12;;;;;;;;;;;21.70;48.60;;;;;;5165191;27;19934;-56
2022/07/10 08:05:37;;;;;;;;;;;21.70;48.50;;;;;;5160910;27;19930;-59
2022/07/10 08:08:08;;;;;;;;;;;21.70;48.60;;;;;;5166685;27;20354;-59
2022/07/10 08:10:34;;;;;;;;;;;21.60;48.60;;;;;;5163365;27;19922;-59
2022/07/10 08:13:00;;;;;;;;;;;21.70;48.40;;;;;;5161271;27;19927;-58
2022/07/10 08:15:25;;;;;;;;;;;21.70;48.20;;;;;;5148217;27;19926;-60
2022/07/10 08:17:57;;;;;;;;;;;21.70;48.10;;;;;;5141252;27;19923;-60
2022/07/10 08:20:24;;;;;;;;;;;21.70;48.00;;;;;;5160251;27;20421;-59
2022/07/10 08:22:51;;;;;;;;;;;21.80;47.80;;;;;;5146781;27;19975;-58
2022/07/10 08:25:16;;;;;;;;;;;21.80;47.60;;;;;;5160964;27;20305;-58
2022/07/10 08:27:42;;;;;;;;;;;21.70;47.50;;;;;;5161411;27;19929;-59
2022/07/10 08:30:08;;;;;;;;;;;21.70;47.50;;;;;;5166781;27;19930;-60
2022/07/10 08:32:35;;;;;;;;;;;21.70;47.50;;;;;;5162072;27;20018;-60
2022/07/10 08:35:01;;;;;;;;;;;21.70;47.30;;;;;;5151373;27;20388;-59
2022/07/10 08:37:27;;;;;;;;;;;21.70;47.40;;;;;;5164648;27;19977;-58
2022/07/10 08:39:52;;;;;;;;;;;21.80;47.30;;;;;;5162895;27;19950;-58
2022/07/10 08:42:18;;;;;;;;;;;21.80;47.40;;;;;;5169388;27;19930;-58
2022/07/10 08:44:44;;;;;;;;;;;21.70;47.60;;;;;;5164552;27;20014;-59
2022/07/10 08:47:11;;;;;;;;;;;21.70;47.90;;;;;;5164684;27;20156;-57
2022/07/10 08:49:37;;;;;;;;;;;21.70;47.70;;;;;;5169890;27;19923;-58
2022/07/10 08:52:08;;;;;;;;;;;21.70;47.60;;;;;;5164483;27;19930;-59
2022/07/10 08:54:33;;;;;;;;;;;21.90;47.10;;;;;;5169058;27;19929;-58
2022/07/10 08:57:01;;;;;;;;;;;21.80;47.10;;;;;;5164497;27;20381;-57
2022/07/10 08:59:27;;;;;;;;;;;21.90;46.80;;;;;;5144831;27;19927;-59
2022/07/10 09:01:53;;;;;;;;;;;21.80;46.80;;;;;;5169502;27;20026;-59
2022/07/10 09:04:20;;;;;;;;;;;21.80;46.50;;;;;;5164225;27;20334;-58
2022/07/10 09:06:45;;;;;;;;;;;21.80;46.60;;;;;;5164497;27;19923;-59
2022/07/10 09:09:11;;;;;;;;;;;21.30;46.20;;;;;;5169863;27;19945;-59
2022/07/10 09:11:42;;;;;;;;;;;21.00;45.60;;;;;;5164708;27;20017;-60
2022/07/10 09:14:08;;;;;;;;;;;21.30;47.60;;;;;;5164245;27;19932;-56
2022/07/10 09:16:35;;;;;;;;;;;21.90;46.50;;;;;;5167744;27;19923;-56
2022/07/10 09:19:19;;;;;;;;;;;22.00;45.20;;;;;;5163619;27;19978;-57
2022/07/10 09:21:45;;;;;;;;;;;22.20;44.60;;;;;;5166272;27;19926;-57
2022/07/10 09:24:11;;;;;;;;;;;22.30;43.90;;;;;;5148898;27;19962;-58
2022/07/10 09:26:38;;;;;;;;;;;22.40;43.40;;;;;;5163927;27;20289;-57
2022/07/10 09:29:07;;;;;;;;;;;22.50;43.10;;;;;;5169509;27;20013;-57
2022/07/10 09:31:50;;;;;;;;;;;22.50;42.60;;;;;;5163560;27;19923;-55
2022/07/10 09:34:15;;;;;;;;;;;21.70;44.10;;;;;;5161907;27;20021;-58
2022/07/10 09:36:41;;;;;;;;;;;21.50;45.00;;;;;;5168452;27;19981;-56
2022/07/10 09:39:07;;;;;;;;;;;21.80;44.80;;;;;;5163442;27;20401;-56
2022/07/10 09:41:33;;;;;;;;;;;21.80;44.40;;;;;;5163540;27;20270;-57
2022/07/10 09:43:59;;;;;;;;;;;21.90;44.20;;;;;;5168963;27;19930;-58
2022/07/10 09:46:30;;;;;;;;;;;21.80;44.20;;;;;;5163727;27;20290;-56
2022/07/10 09:49:09;;;;;;;;;;;21.80;44.20;;;;;;5163666;27;19922;-57
2022/07/10 09:51:38;;;;;;;;;;;21.80;44.10;;;;;;5168327;27;19923;-58
2022/07/10 09:54:04;;;;;;;;;;;21.90;43.90;;;;;;5143386;27;20067;-56
2022/07/10 09:56:32;;;;;;;;;;;21.80;43.90;;;;;;5167494;27;20025;-59
2022/07/10 09:58:59;;;;;;;;;;;21.80;43.80;;;;;;5165300;27;19923;-58
2022/07/10 10:01:25;;;;;;;;;;;21.90;43.80;;;;;;5163239;27;20013;-59
2022/07/10 10:03:50;;;;;;;;;;;21.80;43.90;;;;;;5149291;27;19934;-58
2022/07/10 10:06:16;;;;;;;;;;;21.90;43.70;;;;;;5163434;27;19930;-58
2022/07/10 10:08:44;;;;;;;;;;;21.90;43.60;;;;;;5163077;27;19945;-60
2022/07/10 10:11:13;;;;;;;;;;;21.80;43.70;;;;;;5148707;27;20378;-60
2022/07/10 10:13:39;;;;;;;;;;;21.90;43.50;;;;;;5143632;27;19934;-58
2022/07/10 10:16:05;;;;;;;;;;;21.90;43.40;;;;;;5142820;27;19923;-59
2022/07/10 10:18:31;;;;;;;;;;;21.80;43.60;;;;;;5149823;27;19926;-60
2022/07/10 10:20:56;;;;;;;;;;;21.90;43.40;;;;;;5162955;27;19926;-59
2022/07/10 10:23:23;;;;;;;;;;;21.90;43.50;;;;;;5168581;27;20369;-59
2022/07/10 10:25:49;;;;;;;;;;;21.90;43.40;;;;;;5163255;27;19930;-59
2022/07/10 10:28:15;;;;;;;;;;;21.90;43.40;;;;;;5162593;27;19923;-59
2022/07/10 10:30:42;;;;;;;;;;;21.90;43.30;;;;;;5166724;27;19934;-58
2022/07/10 10:33:27;;;;;;;;;;;21.90;43.30;;;;;;5162535;27;20621;-59
2022/07/10 10:35:52;;;;;;;;;;;21.90;43.30;;;;;;5162789;27;20297;-59
2022/07/10 10:38:18;;;;;;;;;;;21.90;43.40;;;;;;5168262;27;19923;-58
2022/07/10 10:40:44;;;;;;;;;;;21.90;43.20;;;;;;5162711;27;20362;-60
2022/07/10 10:43:17;;;;;;;;;;;21.90;43.10;;;;;;5162573;27;19922;-60
2022/07/10 10:45:44;;;;;;;;;;;21.90;43.00;;;;;;5167368;27;21244;-59
2022/07/10 10:48:11;;;;;;;;;;;21.90;43.00;;;;;;5160998;27;19933;-59
2022/07/10 10:50:53;;;;;;;;;;;21.90;42.70;;;;;;5167392;27;20297;-59
2022/07/10 10:53:22;;;;;;;;;;;21.90;42.50;;;;;;5167725;27;19929;-59
2022/07/10 10:56:03;;;;;;;;;;;21.90;42.60;;;;;;5162054;27;20017;-60
2022/07/10 10:58:35;;;;;;;;;;;22.00;42.40;;;;;;5165715;27;20433;-59
2022/07/10 11:01:05;;;;;;;;;;;22.00;42.50;;;;;;5167922;27;19923;-58
2022/07/10 11:03:30;;;;;;;;;;;21.80;43.00;;;;;;5162511;27;20021;-59
2022/07/10 11:05:56;;;;;;;;;;;20.10;46.20;;;;;;5166852;27;19954;-59
2022/07/10 11:08:35;;;;;;;;;;;19.60;48.10;;;;;;5161476;27;20009;-58
2022/07/10 11:11:03;;;;;;;;;;;20.80;45.70;;;;;;5162150;27;19929;-58
2022/07/10 11:13:29;;;;;;;;;;;21.60;43.20;;;;;;5148558;27;20359;-58
2022/07/10 11:15:57;;;;;;;;;;;20.70;44.60;;;;;;5162877;27;19979;-59
2022/07/10 11:18:25;;;;;;;;;;;20.50;44.90;;;;;;5144682;27;19927;-59
2022/07/10 11:20:53;;;;;;;;;;;20.40;45.00;;;;;;5168014;27;20334;-59
2022/07/10 11:23:34;;;;;;;;;;;20.30;44.80;;;;;;5162824;27;19923;-59
2022/07/10 11:26:07;;;;;;;;;;;20.30;44.70;;;;;;5162288;27;19922;-56
2022/07/10 11:28:47;;;;;;;;;;;20.10;45.20;;;;;;5167557;27;19922;-59
2022/07/10 11:31:13;;;;;;;;;;;19.90;45.40;;;;;;5163377;27;19922;-58
2022/07/10 11:33:39;;;;;;;;;;;20.00;44.80;;;;;;5144759;27;20152;-60
2022/07/10 11:36:09;;;;;;;;;;;20.30;44.40;;;;;;5167963;27;19929;-59
2022/07/10 11:38:35;;;;;;;;;;;20.10;44.60;;;;;;5144956;27;19929;-58
2022/07/10 11:41:01;;;;;;;;;;;20.00;44.60;;;;;;5166933;27;19929;-58
2022/07/10 11:43:27;;;;;;;;;;;20.00;44.90;;;;;;5162466;27;19972;-59
2022/07/10 11:45:59;;;;;;;;;;;19.80;44.70;;;;;;5162822;27;20281;-59
2022/07/10 11:48:24;;;;;;;;;;;19.80;44.70;;;;;;5167641;27;19981;-60
2022/07/10 11:50:50;;;;;;;;;;;19.70;45.00;;;;;;5163368;27;20302;-55
2022/07/10 11:53:23;;;;;;;;;;;19.70;45.10;;;;;;5164738;27;20377;-52
2022/07/10 11:55:50;;;;;;;;;;;19.80;44.90;;;;;;5149066;27;19929;-54
2022/07/10 11:58:16;;;;;;;;;;;20.10;44.80;;;;;;5163423;27;19927;-50
2022/07/10 12:00:42;;;;;;;;;;;21.30;42.80;;;;;;5141300;27;19959;-50
2022/07/10 12:03:19;;;;;;;;;;;21.50;41.70;;;;;;5147433;27;20009;-48
2022/07/10 12:05:45;;;;;;;;;;;20.50;43.30;;;;;;5162451;27;19926;-48
2022/07/10 12:08:12;;;;;;;;;;;20.10;44.20;;;;;;5166601;27;19955;-51
2022/07/10 12:10:41;;;;;;;;;;;20.00;44.40;;;;;;5169512;27;20009;-50
2022/07/10 12:13:12;;;;;;;;;;;19.90;44.00;;;;;;5166586;27;19926;-47
2022/07/10 12:15:39;;;;;;;;;;;19.80;44.60;;;;;;5170871;27;19927;-49
2022/07/10 12:18:05;;;;;;;;;;;20.00;43.70;;;;;;5166597;27;20566;-49
2022/07/10 12:20:31;;;;;;;;;;;19.80;43.80;;;;;;5165705;27;20389;-48
2022/07/10 12:22:57;;;;;;;;;;;19.90;43.40;;;;;;5170485;27;19981;-47
2022/07/10 12:25:23;;;;;;;;;;;19.70;43.10;;;;;;5148228;27;19926;-50
2022/07/10 12:27:49;;;;;;;;;;;19.80;43.00;;;;;;5166972;27;19930;-47
2022/07/10 12:30:15;;;;;;;;;;;19.80;42.90;;;;;;5171172;27;19922;-50
2022/07/10 12:32:40;;;;;;;;;;;19.70;43.00;;;;;;5148071;27;19974;-49
2022/07/10 12:35:14;;;;;;;;;;;19.90;42.70;;;;;;5170978;27;20496;-49
2022/07/10 12:37:49;;;;;;;;;;;21.20;40.50;;;;;;5165834;27;20361;-47
2022/07/10 12:40:30;;;;;;;;;;;21.80;38.90;;;;;;5164215;27;20365;-46
2022/07/10 12:43:06;;;;;;;;;;;20.60;40.90;;;;;;5169603;27;19926;-53
2022/07/10 12:45:32;;;;;;;;;;;20.20;41.90;;;;;;5170015;27;19923;-47
2022/07/10 12:47:58;;;;;;;;;;;20.00;42.50;;;;;;5165528;27;20430;-46
2022/07/10 12:50:25;;;;;;;;;;;19.80;42.40;;;;;;5170549;27;19938;-49
2022/07/10 12:53:06;;;;;;;;;;;19.70;42.80;;;;;;5165228;27;19933;-49
2022/07/10 12:55:35;;;;;;;;;;;19.90;42.50;;;;;;5166998;27;19922;-49
2022/07/10 12:58:08;;;;;;;;;;;21.30;39.70;;;;;;5168750;27;20290;-46
2022/07/10 13:00:35;;;;;;;;;;;21.40;39.00;;;;;;5164426;27;19975;-48
2022/07/10 13:03:00;;;;;;;;;;;20.30;41.00;;;;;;5164600;27;20346;-45
2022/07/10 13:05:27;;;;;;;;;;;20.00;41.40;;;;;;5169939;27;20071;-50
2022/07/10 13:08:03;;;;;;;;;;;19.60;42.30;;;;;;5164844;27;19929;-45
2022/07/10 13:10:29;;;;;;;;;;;19.80;41.90;;;;;;5146668;27;20062;-45
2022/07/10 13:12:55;;;;;;;;;;;20.00;42.00;;;;;;5169776;27;19967;-45
2022/07/10 13:15:21;;;;;;;;;;;20.00;41.80;;;;;;5163753;27;19927;-44
2022/07/10 13:17:48;;;;;;;;;;;19.80;42.10;;;;;;5169068;27;20017;-52
2022/07/10 13:20:15;;;;;;;;;;;19.80;42.10;;;;;;5165938;27;19926;-45
2022/07/10 13:22:40;;;;;;;;;;;19.70;42.60;;;;;;5165487;27;20319;-45
2022/07/10 13:25:06;;;;;;;;;;;19.60;42.70;;;;;;5170022;27;19933;-44
2022/07/10 13:27:32;;;;;;;;;;;19.70;42.60;;;;;;5165819;27;19923;-47
2022/07/10 13:29:58;;;;;;;;;;;19.80;42.40;;;;;;5131956;27;19933;-47
2022/07/10 13:32:25;;;;;;;;;;;21.10;40.10;;;;;;5168715;27;20343;-44
2022/07/10 13:34:50;;;;;;;;;;;21.80;38.40;;;;;;5162609;27;19923;-46
2022/07/10 13:37:16;;;;;;;;;;;20.40;41.30;;;;;;5164916;27;19923;-52
2022/07/10 13:39:42;;;;;;;;;;;20.10;41.60;;;;;;5167896;27;19958;-45
2022/07/10 13:42:08;;;;;;;;;;;19.80;42.20;;;;;;5164234;27;19926;-45
2022/07/10 13:44:33;;;;;;;;;;;19.70;42.60;;;;;;5169173;27;19927;-44
2022/07/10 13:46:59;;;;;;;;;;;19.80;42.40;;;;;;5145855;27;20438;-46
2022/07/10 13:49:27;;;;;;;;;;;20.00;41.90;;;;;;5145046;27;20389;-50
2022/07/10 13:51:52;;;;;;;;;;;19.80;42.20;;;;;;5167366;27;19923;-53
2022/07/10 13:54:18;;;;;;;;;;;19.80;42.60;;;;;;5163153;27;19930;-48
2022/07/10 13:56:44;;;;;;;;;;;19.80;42.80;;;;;;5163891;27;19973;-49
2022/07/10 13:59:10;;;;;;;;;;;19.90;42.60;;;;;;5169191;27;20022;-49
2022/07/10 14:01:36;;;;;;;;;;;19.80;42.90;;;;;;5127994;27;19975;-48
2022/07/10 14:04:01;;;;;;;;;;;19.70;42.90;;;;;;5169064;27;19934;-48
2022/07/10 14:06:27;;;;;;;;;;;19.70;43.10;;;;;;5163547;27;20013;-51
2022/07/10 14:08:53;;;;;;;;;;;19.70;43.30;;;;;;5144888;27;19926;-48
2022/07/10 14:11:19;;;;;;;;;;;20.10;42.80;;;;;;5167794;27;19945;-52
2022/07/10 14:13:45;;;;;;;;;;;21.30;40.40;;;;;;5163939;27;19922;-48
2022/07/10 14:16:10;;;;;;;;;;;21.80;39.20;;;;;;5163686;27;19974;-48
2022/07/10 14:18:41;;;;;;;;;;;20.60;41.90;;;;;;5168674;27;20286;-47
2022/07/10 14:21:08;;;;;;;;;;;20.20;42.20;;;;;;5163832;27;19975;-49
2022/07/10 14:23:34;;;;;;;;;;;19.90;42.80;;;;;;5168525;27;20331;-54